Time;durP1;ratioP1;P1;durP2;ratioP2;P2;SDS_P1;SDS_P2;PMS_P1;PMS_P2;Temp;Humidity;BMP_temperature;BMP_pressure;BME280_temperature;BME280_humidity;BME280_pressure;Samples;Min_cycle;Max_cycle;Signal;HPM_P1;HPM_P2
2023/08/06 00:01:13;;;;;;;;;6.00;4.00;;;;;16.14;77.77;98834.44;4976725;28;8844;-59
2023/08/06 00:03:42;;;;;;;;;8.40;5.60;;;;;16.13;77.39;98835.44;4976254;28;8837;-59
2023/08/06 00:06:11;;;;;;;;;3.60;3.60;;;;;16.12;77.32;98837.31;4977358;28;8836;-58
2023/08/06 00:08:38;;;;;;;;;6.20;4.40;;;;;16.15;77.38;98836.09;4977178;28;8943;-58
2023/08/06 00:11:06;;;;;;;;;5.20;5.20;;;;;16.17;77.57;98834.06;4977568;28;8849;-59
2023/08/06 00:13:34;;;;;;;;;6.00;4.00;;;;;16.17;77.26;98822.28;4977559;28;9487;-59
2023/08/06 00:16:02;;;;;;;;;3.80;3.40;;;;;16.19;77.62;98814.88;4977412;28;9510;-58
2023/08/06 00:18:29;;;;;;;;;6.00;6.00;;;;;16.22;77.66;98820.91;4977185;28;8987;-59
2023/08/06 00:20:57;;;;;;;;;6.00;6.00;;;;;16.22;77.23;98815.53;4976797;28;8843;-59
2023/08/06 00:23:25;;;;;;;;;4.00;4.00;;;;;16.23;77.44;98822.59;4975625;28;8828;-58
2023/08/06 00:25:52;;;;;;;;;5.20;5.20;;;;;16.21;77.50;98817.38;4976356;28;8911;-57
2023/08/06 00:28:20;;;;;;;;;5.60;4.40;;;;;16.20;77.08;98816.53;4976279;28;8833;-58
2023/08/06 00:30:48;;;;;;;;;4.00;4.00;;;;;16.19;77.49;98817.56;4975846;28;9514;-61
2023/08/06 00:33:16;;;;;;;;;5.00;5.00;;;;;16.18;77.74;98809.72;4975376;28;8840;-58
2023/08/06 00:35:43;;;;;;;;;3.00;3.00;;;;;16.17;77.65;98806.19;4975207;28;8840;-59
2023/08/06 00:38:11;;;;;;;;;6.60;4.80;;;;;16.17;77.55;98807.19;4974125;28;8836;-59
2023/08/06 00:40:38;;;;;;;;;4.00;4.00;;;;;16.16;77.73;98811.72;4975159;28;9721;-59
2023/08/06 00:43:06;;;;;;;;;3.40;3.20;;;;;16.15;77.42;98799.31;4974464;28;8828;-58
2023/08/06 00:45:34;;;;;;;;;4.00;4.00;;;;;16.14;78.14;98797.66;4975400;28;8852;-59
2023/08/06 00:48:01;;;;;;;;;4.80;3.40;;;;;16.12;78.13;98799.69;4974516;28;8836;-59
2023/08/06 00:50:29;;;;;;;;;3.60;3.60;;;;;16.11;77.90;98799.88;4975657;28;8862;-58
2023/08/06 00:52:56;;;;;;;;;3.20;3.20;;;;;16.08;77.71;98792.19;4976328;28;8875;-59
2023/08/06 00:55:26;;;;;;;;;3.80;3.60;;;;;16.07;77.69;98801.28;4975819;28;8828;-58
2023/08/06 00:57:56;;;;;;;;;4.00;3.60;;;;;16.03;78.09;98790.06;4975619;28;8848;-58
2023/08/06 01:00:24;;;;;;;;;4.40;4.40;;;;;16.02;77.70;98787.56;4976579;28;8853;-58
2023/08/06 01:02:51;;;;;;;;;5.20;4.00;;;;;16.01;77.82;98780.53;4976988;28;8954;-59
2023/08/06 01:05:19;;;;;;;;;3.00;3.00;;;;;16.00;77.91;98789.59;4975773;28;8835;-59
2023/08/06 01:07:47;;;;;;;;;6.20;6.00;;;;;16.00;78.24;98784.22;4980166;28;9581;-57
2023/08/06 01:10:15;;;;;;;;;6.60;6.40;;;;;15.98;77.92;98776.34;4979180;28;8828;-58
2023/08/06 01:12:43;;;;;;;;;6.20;6.00;;;;;16.01;78.03;98775.16;4980451;28;8844;-59
2023/08/06 01:15:10;;;;;;;;;6.00;6.00;;;;;16.00;77.85;98770.81;4980519;28;8849;-60
2023/08/06 01:17:38;;;;;;;;;3.60;3.20;;;;;16.00;78.00;98763.56;4980584;28;8821;-59
2023/08/06 01:20:06;;;;;;;;;4.40;4.40;;;;;16.00;78.49;98757.38;4980242;28;8947;-58
2023/08/06 01:22:34;;;;;;;;;5.60;5.60;;;;;15.99;77.82;98758.41;4978985;28;8824;-59
2023/08/06 01:25:02;;;;;;;;;5.20;5.20;;;;;15.98;78.18;98759.38;4979145;28;8825;-58
2023/08/06 01:27:29;;;;;;;;;6.40;6.40;;;;;15.99;78.15;98755.72;4980248;28;8833;-59
2023/08/06 01:29:57;;;;;;;;;9.00;7.00;;;;;15.99;78.43;98751.16;4979084;28;8825;-59
2023/08/06 01:32:24;;;;;;;;;6.60;6.20;;;;;15.98;77.99;98751.34;4980794;28;8828;-61
2023/08/06 01:34:52;;;;;;;;;6.00;6.00;;;;;15.98;78.43;98748.66;4979818;28;8836;-58
2023/08/06 01:37:20;;;;;;;;;3.40;2.60;;;;;15.97;78.29;98742.47;4980341;28;8836;-61
2023/08/06 01:39:48;;;;;;;;;6.00;5.20;;;;;15.98;78.17;98737.91;4980105;28;8829;-59
2023/08/06 01:42:15;;;;;;;;;3.20;3.00;;;;;15.99;77.93;98744.97;4980296;28;8836;-58
2023/08/06 01:44:43;;;;;;;;;4.00;4.00;;;;;16.00;78.24;98746.63;4979912;28;8828;-58
2023/08/06 01:47:10;;;;;;;;;3.60;3.60;;;;;16.00;78.70;98743.94;4980165;28;8812;-58
2023/08/06 01:49:38;;;;;;;;;6.60;6.40;;;;;16.03;78.55;98740.88;4979924;28;8828;-59
2023/08/06 01:52:06;;;;;;;;;4.40;4.00;;;;;16.03;78.13;98741.72;4979762;28;9693;-59
2023/08/06 01:54:33;;;;;;;;;4.80;4.40;;;;;16.06;78.28;98749.41;4979549;28;8825;-59
2023/08/06 01:57:01;;;;;;;;;6.20;6.20;;;;;16.07;78.52;98747.56;4979143;28;8830;-60
2023/08/06 01:59:28;;;;;;;;;6.20;4.00;;;;;16.06;78.29;98752.09;4978860;28;8821;-60
2023/08/06 02:01:56;;;;;;;;;6.60;6.00;;;;;16.06;77.87;98740.50;4978895;28;8894;-59
2023/08/06 02:04:24;;;;;;;;;4.40;3.80;;;;;16.06;77.99;98741.34;4979669;28;8840;-58
2023/08/06 02:06:51;;;;;;;;;3.80;3.80;;;;;16.05;78.50;98736.16;4978847;28;8860;-59
2023/08/06 02:09:19;;;;;;;;;5.80;5.80;;;;;16.07;78.06;98744.88;4979092;28;8836;-59
2023/08/06 02:11:46;;;;;;;;;6.80;6.80;;;;;16.06;77.99;98735.97;4978086;28;8829;-58
2023/08/06 02:14:14;;;;;;;;;4.00;4.00;;;;;16.07;78.05;98736.81;4979336;28;8920;-60
2023/08/06 02:16:42;;;;;;;;;6.00;5.60;;;;;16.05;78.46;98728.94;4978611;28;8883;-57
2023/08/06 02:19:09;;;;;;;;;3.20;3.20;;;;;16.05;78.27;98731.63;4978399;28;8830;-57
2023/08/06 02:21:37;;;;;;;;;6.80;6.20;;;;;16.05;78.37;98733.47;4978654;28;8832;-57
2023/08/06 02:24:05;;;;;;;;;6.40;6.20;;;;;16.04;78.54;98721.06;4978494;28;8839;-59
2023/08/06 02:26:33;;;;;;;;;7.00;7.00;;;;;16.04;78.50;98721.06;4978494;28;8847;-58
2023/08/06 02:29:01;;;;;;;;;4.00;3.60;;;;;16.02;78.71;98717.72;4978356;28;9495;-58
2023/08/06 02:31:28;;;;;;;;;4.00;4.00;;;;;16.02;78.22;98712.38;4978405;28;9589;-59
2023/08/06 02:33:57;;;;;;;;;3.20;3.20;;;;;15.99;78.26;98713.56;4978440;28;8959;-60
2023/08/06 02:36:24;;;;;;;;;5.20;4.80;;;;;16.00;78.52;98709.84;4978431;28;8840;-60
2023/08/06 02:38:52;;;;;;;;;4.00;4.00;;;;;15.99;78.24;98707.38;4978771;28;9012;-60
2023/08/06 02:41:19;;;;;;;;;6.00;6.00;;;;;15.97;78.20;98701.34;4978627;28;8836;-59
2023/08/06 02:43:47;;;;;;;;;6.20;5.60;;;;;15.96;78.56;98697.00;4978553;28;8832;-59
2023/08/06 02:46:17;;;;;;;;;6.40;5.20;;;;;15.95;78.82;98692.63;4978424;28;8850;-58
2023/08/06 02:48:44;;;;;;;;;4.00;4.00;;;;;15.95;78.28;98690.81;4978287;28;8847;-59
2023/08/06 02:51:12;;;;;;;;;3.00;3.00;;;;;15.95;78.49;98681.91;4978467;28;8953;-58
2023/08/06 02:53:39;;;;;;;;;7.20;6.80;;;;;15.95;78.50;98684.59;4979027;28;8841;-58
2023/08/06 02:56:07;;;;;;;;;3.60;3.60;;;;;15.95;78.78;98684.59;4978738;28;8835;-59
2023/08/06 02:58:35;;;;;;;;;4.00;3.20;;;;;15.92;78.83;98679.59;4977918;28;8843;-58
2023/08/06 03:01:03;;;;;;;;;4.40;4.00;;;;;15.90;78.61;98677.09;4978411;28;8860;-58
2023/08/06 03:03:33;;;;;;;;;3.20;3.20;;;;;15.89;78.49;98675.44;4978804;28;8852;-58
2023/08/06 03:06:01;;;;;;;;;4.00;4.00;;;;;15.88;78.78;98673.78;4978902;28;8832;-58
2023/08/06 03:08:29;;;;;;;;;4.00;4.00;;;;;15.89;78.91;98679.94;4978892;28;8832;-59
2023/08/06 03:10:57;;;;;;;;;6.60;5.80;;;;;15.86;78.93;98675.78;4978325;28;8836;-58
2023/08/06 03:13:24;;;;;;;;;7.00;6.40;;;;;15.83;78.67;98667.25;4978482;28;8844;-58
2023/08/06 03:15:52;;;;;;;;;4.00;4.00;;;;;15.77;78.64;98666.16;4978641;28;8821;-59
2023/08/06 03:18:19;;;;;;;;;5.20;5.20;;;;;15.74;78.98;98666.56;4978209;28;8832;-58
2023/08/06 03:20:47;;;;;;;;;3.60;3.60;;;;;15.71;79.27;98658.84;4978773;28;8829;-58
2023/08/06 03:23:15;;;;;;;;;8.00;6.60;;;;;15.72;79.57;98662.38;4978533;28;8845;-58
2023/08/06 03:25:42;;;;;;;;;5.60;4.80;;;;;15.69;79.25;98657.41;4978552;28;9560;-60
2023/08/06 03:28:10;;;;;;;;;4.00;4.00;;;;;15.68;79.49;98669.13;4978205;28;8827;-59
2023/08/06 03:30:37;;;;;;;;;4.00;4.00;;;;;15.66;79.50;98655.06;4978317;28;8911;-58
2023/08/06 03:33:05;;;;;;;;;5.20;5.20;;;;;15.62;79.06;98665.34;4978067;28;8924;-58
2023/08/06 03:35:32;;;;;;;;;4.00;3.80;;;;;15.58;79.74;98671.25;4978075;28;8859;-57
2023/08/06 03:38:00;;;;;;;;;6.60;5.60;;;;;15.56;79.62;98670.63;4977884;28;8875;-58
2023/08/06 03:40:28;;;;;;;;;4.20;3.60;;;;;15.54;79.12;98668.09;4978270;28;8907;-58
2023/08/06 03:42:55;;;;;;;;;3.80;3.80;;;;;15.52;79.64;98667.47;4977968;28;8829;-57
2023/08/06 03:45:23;;;;;;;;;3.60;3.40;;;;;15.50;79.79;98661.47;4977885;28;8856;-58
2023/08/06 03:47:50;;;;;;;;;3.20;3.20;;;;;15.48;79.51;98666.16;4978151;28;8966;-59
2023/08/06 03:50:18;;;;;;;;;3.00;3.00;;;;;15.45;79.39;98655.81;4977726;28;9525;-58
2023/08/06 03:52:46;;;;;;;;;3.80;3.20;;;;;15.44;79.37;98658.66;4977796;28;8840;-58
2023/08/06 03:55:14;;;;;;;;;4.80;4.80;;;;;15.41;79.74;98646.44;4977739;28;8835;-59
2023/08/06 03:57:41;;;;;;;;;5.60;5.60;;;;;15.38;79.60;98648.66;4977357;28;8817;-57
2023/08/06 04:00:09;;;;;;;;;4.80;3.60;;;;;15.37;79.48;98647.00;4977963;28;8876;-59
2023/08/06 04:02:37;;;;;;;;;4.00;3.40;;;;;15.36;80.18;98648.88;4977418;28;8817;-58
2023/08/06 04:05:05;;;;;;;;;4.00;3.00;;;;;15.36;79.89;98648.03;4977896;28;8836;-59
2023/08/06 04:07:32;;;;;;;;;4.00;3.00;;;;;15.37;79.44;98647.00;4977281;28;8839;-58
2023/08/06 04:10:00;;;;;;;;;6.00;5.60;;;;;15.43;79.36;98648.94;4977483;28;8817;-58
2023/08/06 04:12:28;;;;;;;;;4.80;4.80;;;;;15.46;79.25;98645.91;4977355;28;8907;-59
2023/08/06 04:14:55;;;;;;;;;4.00;3.60;;;;;15.46;79.76;98640.56;4977434;28;8856;-60
2023/08/06 04:17:23;;;;;;;;;4.50;4.00;;;;;15.44;79.58;98647.94;4977076;28;8816;-58
2023/08/06 04:19:51;;;;;;;;;3.40;3.40;;;;;15.41;79.66;98645.63;4976932;28;8828;-59
2023/08/06 04:22:19;;;;;;;;;4.40;4.40;;;;;15.41;79.46;98642.94;4977244;28;8832;-58
2023/08/06 04:24:47;;;;;;;;;5.60;3.60;;;;;15.42;79.51;98633.88;4977269;28;8809;-58
2023/08/06 04:27:15;;;;;;;;;3.00;3.00;;;;;15.45;79.70;98638.84;4977240;28;8833;-60
2023/08/06 04:29:43;;;;;;;;;6.00;4.00;;;;;15.48;79.85;98642.00;4976837;28;8845;-57
2023/08/06 04:32:10;;;;;;;;;4.00;4.00;;;;;15.51;79.29;98632.75;4977317;28;8832;-60
2023/08/06 04:34:38;;;;;;;;;3.00;3.00;;;;;15.52;79.07;98627.22;4977125;28;8852;-58
2023/08/06 04:37:06;;;;;;;;;5.20;4.00;;;;;15.57;79.12;98634.72;4977128;28;8808;-60
2023/08/06 04:39:33;;;;;;;;;6.00;5.20;;;;;15.60;79.01;98637.00;4977716;28;8863;-60
2023/08/06 04:42:01;;;;;;;;;6.40;4.00;;;;;15.63;79.04;98640.16;4976964;28;8860;-58
2023/08/06 04:44:28;;;;;;;;;3.00;3.00;;;;;15.64;79.27;98641.00;4977098;28;8851;-58
2023/08/06 04:46:56;;;;;;;;;3.80;3.80;;;;;15.62;79.39;98635.81;4976880;28;9523;-58
2023/08/06 04:49:24;;;;;;;;;3.40;3.40;;;;;15.60;78.95;98631.66;4977123;28;8867;-59
2023/08/06 04:51:52;;;;;;;;;4.00;4.00;;;;;15.60;78.90;98637.00;4977165;28;8840;-60
2023/08/06 04:54:20;;;;;;;;;4.80;4.80;;;;;15.60;79.41;98634.31;4976992;28;8825;-59
2023/08/06 04:56:48;;;;;;;;;3.80;3.40;;;;;15.59;79.25;98635.34;4976936;28;8832;-60
2023/08/06 04:59:15;;;;;;;;;4.00;4.00;;;;;15.60;78.97;98637.84;4976203;28;8927;-60
2023/08/06 05:01:43;;;;;;;;;5.20;4.00;;;;;15.62;79.06;98646.53;4958206;29;8830;-57
2023/08/06 05:04:11;;;;;;;;;5.60;5.60;;;;;15.64;79.35;98643.69;4957776;29;8959;-59
2023/08/06 05:06:40;;;;;;;;;3.60;3.60;;;;;15.68;79.13;98647.66;4957449;29;8830;-59
2023/08/06 05:09:07;;;;;;;;;3.40;3.20;;;;;15.72;78.99;98655.19;4957452;29;8842;-60
2023/08/06 05:11:35;;;;;;;;;3.40;3.00;;;;;15.76;78.64;98651.09;4957505;29;8855;-60
2023/08/06 05:14:03;;;;;;;;;4.80;3.80;;;;;15.81;78.70;98651.38;4957192;29;8858;-58
2023/08/06 05:16:31;;;;;;;;;3.80;3.80;;;;;15.85;78.57;98657.19;4957141;29;8822;-58
2023/08/06 05:18:58;;;;;;;;;6.80;5.60;;;;;15.89;78.91;98658.47;4957591;29;8827;-58
2023/08/06 05:21:26;;;;;;;;;4.00;3.40;;;;;15.91;78.44;98651.09;4957288;29;8830;-60
2023/08/06 05:23:54;;;;;;;;;6.00;6.00;;;;;15.97;78.79;98659.22;4957146;29;8877;-58
2023/08/06 05:26:21;;;;;;;;;3.00;3.00;;;;;16.03;78.49;98650.41;4957242;29;8976;-59
2023/08/06 05:28:49;;;;;;;;;3.00;3.00;;;;;16.09;78.54;98652.31;4969655;28;8816;-59
2023/08/06 05:31:17;;;;;;;;;3.00;3.00;;;;;16.15;77.86;98653.44;4976512;28;9554;-58
2023/08/06 05:33:44;;;;;;;;;3.00;3.00;;;;;16.18;77.94;98660.09;4975929;28;8840;-59
2023/08/06 05:36:12;;;;;;;;;3.00;3.00;;;;;16.18;77.90;98657.41;4976329;28;8832;-58
2023/08/06 05:38:39;;;;;;;;;3.00;3.00;;;;;16.19;78.07;98652.88;4976574;28;8979;-60
2023/08/06 05:41:08;;;;;;;;;4.80;3.20;;;;;16.17;78.31;98655.75;4976603;28;8912;-60
2023/08/06 05:43:35;;;;;;;;;2.20;2.20;;;;;16.17;78.10;98655.75;4976545;28;8837;-58
2023/08/06 05:46:04;;;;;;;;;2.20;2.20;;;;;16.20;77.76;98652.66;4976366;28;8832;-59
2023/08/06 05:48:31;;;;;;;;;3.80;3.80;;;;;16.24;78.19;98647.75;4976856;28;9598;-59
2023/08/06 05:50:59;;;;;;;;;3.00;3.00;;;;;16.29;77.90;98651.56;4976149;28;8824;-60
2023/08/06 05:53:27;;;;;;;;;3.20;3.20;;;;;16.34;77.97;98635.69;4979579;28;8845;-58
2023/08/06 05:55:54;;;;;;;;;4.00;4.00;;;;;16.38;78.14;98641.53;4979511;28;8852;-60
2023/08/06 05:58:24;;;;;;;;;6.00;4.00;;;;;16.43;77.83;98641.81;4979237;28;8824;-58
2023/08/06 06:00:51;;;;;;;;;4.00;3.60;;;;;16.49;77.58;98646.44;4979919;28;8840;-58
2023/08/06 06:03:19;;;;;;;;;6.00;4.00;;;;;16.60;77.53;98641.38;4979505;28;8805;-59
2023/08/06 06:05:46;;;;;;;;;4.00;4.00;;;;;16.74;77.39;98642.34;4979894;28;8820;-60
2023/08/06 06:08:14;;;;;;;;;4.00;4.00;;;;;16.91;76.98;98641.88;4979270;28;8828;-61
2023/08/06 06:10:42;;;;;;;;;3.00;3.00;;;;;17.14;75.97;98647.88;4979239;28;8939;-59
2023/08/06 06:13:09;;;;;;;;;3.00;3.00;;;;;17.34;75.62;98653.41;4979204;28;8833;-59
2023/08/06 06:15:38;;;;;;;;;1.00;1.00;;;;;17.52;75.73;98645.66;4979453;28;8836;-58
2023/08/06 06:18:05;;;;;;;;;0.00;0.00;;;;;17.66;74.72;98645.56;4979327;28;8825;-60
2023/08/06 06:20:33;;;;;;;;;3.40;3.40;;;;;17.73;74.84;98641.06;4978984;28;8817;-60
2023/08/06 06:23:00;;;;;;;;;4.80;3.40;;;;;17.86;74.56;98649.22;4979451;28;8825;-58
2023/08/06 06:25:28;;;;;;;;;3.00;1.40;;;;;18.02;74.66;98638.09;4979205;28;8950;-60
2023/08/06 06:27:56;;;;;;;;;3.40;3.00;;;;;18.19;74.40;98650.19;4978990;28;8833;-60
2023/08/06 06:30:24;;;;;;;;;4.40;3.60;;;;;18.34;73.40;98653.59;4979042;28;8833;-60
2023/08/06 06:32:51;;;;;;;;;3.00;3.00;;;;;18.43;73.54;98649.66;4979170;28;8825;-58
2023/08/06 06:35:19;;;;;;;;;3.00;3.00;;;;;18.52;73.54;98650.31;4979234;28;8843;-60
2023/08/06 06:37:46;;;;;;;;;3.00;1.00;;;;;18.55;73.38;98645.34;4979143;28;8857;-59
2023/08/06 06:40:15;;;;;;;;;3.00;3.00;;;;;18.54;73.68;98643.69;4978936;28;8860;-58
2023/08/06 06:42:42;;;;;;;;;3.00;3.00;;;;;18.61;73.33;98649.91;4979056;28;8816;-59
2023/08/06 06:45:10;;;;;;;;;3.00;3.00;;;;;18.64;73.61;98649.50;4979175;28;8813;-59
2023/08/06 06:47:38;;;;;;;;;2.20;2.20;;;;;18.64;73.48;98654.91;4979310;28;8847;-59
2023/08/06 06:50:06;;;;;;;;;1.00;1.00;;;;;18.60;73.36;98658.22;4979218;28;8841;-61
2023/08/06 06:52:34;;;;;;;;;3.40;2.60;;;;;18.58;73.56;98653.03;4978485;28;8835;-58
2023/08/06 06:55:02;;;;;;;;;3.00;3.00;;;;;18.59;73.43;98651.97;4978691;28;8984;-59
2023/08/06 06:57:29;;;;;;;;;1.00;1.00;;;;;18.61;74.09;98657.19;4979526;28;8821;-59
2023/08/06 06:59:57;;;;;;;;;1.40;1.40;;;;;18.67;74.11;98648.28;4978539;28;8845;-60
2023/08/06 07:02:24;;;;;;;;;2.20;1.00;;;;;18.73;73.25;98648.28;4977916;28;8861;-57
2023/08/06 07:04:52;;;;;;;;;4.00;3.40;;;;;18.80;73.39;98650.97;4977469;28;8812;-58
2023/08/06 07:07:20;;;;;;;;;5.20;4.00;;;;;18.87;73.52;98649.97;4977719;28;8855;-57
2023/08/06 07:09:48;;;;;;;;;1.80;1.80;;;;;18.96;73.04;98648.72;4978499;28;8844;-59
2023/08/06 07:12:15;;;;;;;;;1.00;1.00;;;;;19.07;73.04;98644.56;4978660;28;8870;-59
2023/08/06 07:14:43;;;;;;;;;4.00;3.00;;;;;19.24;72.93;98649.38;4977988;28;8844;-58
2023/08/06 07:17:11;;;;;;;;;3.20;3.20;;;;;19.35;72.64;98653.34;4978658;28;8847;-61
2023/08/06 07:19:40;;;;;;;;;3.00;1.80;;;;;19.41;72.34;98652.50;4978793;28;8821;-59
2023/08/06 07:22:08;;;;;;;;;3.20;3.20;;;;;19.48;72.39;98654.16;4977319;28;9506;-59
2023/08/06 07:24:35;;;;;;;;;1.00;1.00;;;;;19.53;71.99;98657.06;4978215;28;8821;-60
2023/08/06 07:27:03;;;;;;;;;1.40;1.40;;;;;19.56;72.39;98662.03;4978149;28;8824;-59
2023/08/06 07:29:31;;;;;;;;;1.00;1.00;;;;;19.68;72.24;98663.06;4977983;28;8841;-61
2023/08/06 07:31:59;;;;;;;;;2.80;2.80;;;;;19.86;71.70;98660.50;4978190;28;8837;-59
2023/08/06 07:34:26;;;;;;;;;2.20;2.20;;;;;20.03;71.59;98663.59;4977832;28;8860;-61
2023/08/06 07:36:54;;;;;;;;;2.20;1.60;;;;;20.13;70.76;98669.41;4978544;28;8828;-60
2023/08/06 07:39:22;;;;;;;;;4.00;3.00;;;;;20.16;71.55;98671.69;4977833;28;8928;-61
2023/08/06 07:41:50;;;;;;;;;2.00;1.40;;;;;20.11;71.23;98674.19;4977890;28;8828;-60
2023/08/06 07:44:19;;;;;;;;;1.00;1.00;;;;;19.98;71.73;98669.63;4978367;28;8919;-59
2023/08/06 07:46:46;;;;;;;;;1.00;1.00;;;;;19.89;72.04;98679.00;4977582;28;8871;-61
2023/08/06 07:49:14;;;;;;;;;1.40;1.00;;;;;19.85;72.08;98679.63;4977785;28;8825;-58
2023/08/06 07:51:42;;;;;;;;;2.20;2.20;;;;;19.77;72.73;98674.44;4978012;28;8967;-60
2023/08/06 07:54:11;;;;;;;;;4.00;2.20;;;;;19.72;72.61;98682.38;4977172;28;8955;-60
2023/08/06 07:56:38;;;;;;;;;1.00;1.00;;;;;19.69;72.13;98682.78;4977667;28;8833;-60
2023/08/06 07:59:06;;;;;;;;;2.00;1.40;;;;;19.64;72.77;98675.31;4977856;28;9507;-61
2023/08/06 08:01:34;;;;;;;;;1.60;1.00;;;;;19.65;72.72;98679.66;4977955;28;8857;-59
2023/08/06 08:04:02;;;;;;;;;2.40;2.20;;;;;19.69;72.51;98678.22;4977666;28;8821;-60
2023/08/06 08:06:30;;;;;;;;;3.40;2.00;;;;;19.82;72.22;98671.94;4977468;28;8863;-61
2023/08/06 08:08:58;;;;;;;;;2.00;1.20;;;;;19.96;71.84;98674.41;4976989;28;8952;-60
2023/08/06 08:11:25;;;;;;;;;1.00;1.00;;;;;20.10;71.81;98673.34;4977244;28;8844;-60
2023/08/06 08:13:53;;;;;;;;;1.00;1.00;;;;;20.32;71.37;98669.31;4977263;28;8836;-61
2023/08/06 08:16:21;;;;;;;;;2.20;2.20;;;;;20.52;70.80;98669.22;4976234;28;8869;-59
2023/08/06 08:18:49;;;;;;;;;1.40;1.40;;;;;20.66;70.23;98662.69;4976761;28;8852;-59
2023/08/06 08:21:17;;;;;;;;;1.00;1.00;;;;;20.83;70.16;98665.50;4976381;28;8934;-59
2023/08/06 08:23:45;;;;;;;;;4.00;2.00;;;;;20.97;69.74;98669.78;4976434;28;8836;-61
2023/08/06 08:26:13;;;;;;;;;4.00;2.40;;;;;21.03;70.06;98673.53;4976100;28;8848;-61
2023/08/06 08:28:40;;;;;;;;;2.00;2.00;;;;;21.07;70.00;98670.16;4976215;28;8829;-59
2023/08/06 08:31:08;;;;;;;;;2.00;2.00;;;;;21.07;70.19;98669.31;4976297;28;8994;-61
2023/08/06 08:33:36;;;;;;;;;1.60;1.40;;;;;20.97;69.97;98669.78;4975427;28;8808;-60
2023/08/06 08:36:04;;;;;;;;;2.00;1.00;;;;;20.80;70.63;98667.81;4975724;28;8894;-58
2023/08/06 08:38:32;;;;;;;;;1.20;1.20;;;;;20.65;71.17;98663.75;4976271;28;8960;-60
2023/08/06 08:40:59;;;;;;;;;0.80;0.80;;;;;20.51;71.38;98671.13;4975401;28;8832;-61
2023/08/06 08:43:28;;;;;;;;;1.40;1.00;;;;;20.39;71.91;98670.13;4975536;28;8860;-61
2023/08/06 08:45:58;;;;;;;;;0.00;0.00;;;;;20.31;72.02;98670.38;4976277;28;8919;-58
2023/08/06 08:48:26;;;;;;;;;2.00;1.00;;;;;20.21;72.30;98670.00;4976881;28;8824;-59
2023/08/06 08:50:54;;;;;;;;;1.00;1.00;;;;;20.15;72.61;98668.16;4976792;28;8887;-61
2023/08/06 08:53:22;;;;;;;;;1.00;1.00;;;;;20.05;72.83;98667.78;4976791;28;8848;-59
2023/08/06 08:55:49;;;;;;;;;1.00;1.00;;;;;19.94;72.70;98671.09;4976654;28;8963;-59
2023/08/06 08:58:17;;;;;;;;;1.00;1.00;;;;;19.83;72.80;98663.66;4976920;28;9487;-60
2023/08/06 09:00:45;;;;;;;;;3.60;3.60;;;;;19.74;72.80;98675.72;4976001;28;8843;-58
2023/08/06 09:03:13;;;;;;;;;1.00;1.00;;;;;19.64;73.21;98675.31;4976050;28;8848;-60
2023/08/06 09:05:40;;;;;;;;;2.80;2.80;;;;;19.53;73.58;98678.66;4976007;28;8841;-61
2023/08/06 09:08:09;;;;;;;;;4.00;3.40;;;;;19.42;73.71;98681.97;4976057;28;8832;-60
2023/08/06 09:10:38;;;;;;;;;2.20;2.20;;;;;19.32;73.89;98686.13;4976158;28;8834;-59
2023/08/06 09:13:06;;;;;;;;;2.40;2.40;;;;;19.24;74.56;98691.75;4976734;28;8833;-60
2023/08/06 09:15:34;;;;;;;;;1.00;1.00;;;;;19.13;74.37;98684.25;4975883;28;8887;-61
2023/08/06 09:18:02;;;;;;;;;4.00;4.00;;;;;18.98;74.67;98700.59;4976067;28;8844;-59
2023/08/06 09:20:31;;;;;;;;;3.20;3.20;;;;;18.77;75.27;98697.25;4976242;28;8862;-60
2023/08/06 09:23:00;;;;;;;;;4.00;3.00;;;;;18.62;75.87;98696.59;4975888;28;8971;-58
2023/08/06 09:25:28;;;;;;;;;3.00;3.00;;;;;18.57;76.09;98702.59;4976170;28;8861;-59
2023/08/06 09:27:56;;;;;;;;;4.80;4.80;;;;;18.58;75.47;98704.25;4978767;28;8832;-58
2023/08/06 09:30:24;;;;;;;;;3.20;3.00;;;;;18.64;75.51;98703.47;4979934;28;8825;-61
2023/08/06 09:32:52;;;;;;;;;3.60;3.60;;;;;18.71;75.13;98709.69;4979766;28;8947;-60
2023/08/06 09:35:20;;;;;;;;;3.00;2.60;;;;;18.78;74.98;98694.38;4979653;28;8848;-59
2023/08/06 09:37:48;;;;;;;;;4.00;3.00;;;;;18.90;74.93;98705.38;4980061;28;8874;-59
2023/08/06 09:40:16;;;;;;;;;3.00;3.00;;;;;18.99;74.70;98696.06;4979621;28;8820;-59
2023/08/06 09:42:45;;;;;;;;;4.80;3.40;;;;;19.12;74.00;98699.59;4979384;28;8848;-61
2023/08/06 09:45:15;;;;;;;;;3.80;3.80;;;;;19.24;73.87;98706.09;4979599;28;8825;-60
2023/08/06 09:47:43;;;;;;;;;3.60;3.60;;;;;19.34;74.07;98705.69;4979390;28;8833;-58
2023/08/06 09:50:11;;;;;;;;;4.00;4.00;;;;;19.42;74.01;98708.97;4978875;28;8817;-59
2023/08/06 09:52:38;;;;;;;;;1.00;1.00;;;;;19.47;73.55;98703.81;4979268;28;9596;-59
2023/08/06 09:55:06;;;;;;;;;4.80;3.80;;;;;19.49;73.28;98704.41;4979244;28;8867;-59
2023/08/06 09:57:35;;;;;;;;;3.20;3.00;;;;;19.51;73.15;98702.31;4978943;28;8845;-59
2023/08/06 10:00:03;;;;;;;;;2.40;2.40;;;;;19.55;73.35;98708.97;4979181;28;8879;-58
2023/08/06 10:02:30;;;;;;;;;3.00;3.00;;;;;19.59;73.89;98704.84;4979014;28;8910;-59
2023/08/06 10:04:59;;;;;;;;;3.20;1.60;;;;;19.63;73.37;98714.16;4979016;28;8962;-59
2023/08/06 10:07:27;;;;;;;;;2.20;2.20;;;;;19.65;73.49;98725.59;4979161;28;8867;-58
2023/08/06 10:09:56;;;;;;;;;4.00;2.20;;;;;19.66;73.45;98716.44;4978307;28;9626;-59
2023/08/06 10:12:24;;;;;;;;;2.20;2.20;;;;;19.70;73.68;98722.25;4969347;28;8816;-60
2023/08/06 10:14:52;;;;;;;;;2.20;2.20;;;;;19.76;73.38;98716.88;4978598;28;8859;-59
2023/08/06 10:17:20;;;;;;;;;3.80;3.20;;;;;19.80;73.55;98718.09;4978491;28;8840;-58
2023/08/06 10:19:48;;;;;;;;;3.80;2.20;;;;;19.81;73.00;98714.34;4978296;28;8967;-58
2023/08/06 10:22:17;;;;;;;;;2.20;1.40;;;;;19.79;73.52;98719.13;4979040;28;9606;-59
2023/08/06 10:24:44;;;;;;;;;1.20;1.20;;;;;19.78;73.21;98720.19;4979022;28;8832;-59
2023/08/06 10:27:13;;;;;;;;;2.20;2.00;;;;;19.76;73.36;98711.47;4978657;28;8829;-58
2023/08/06 10:29:40;;;;;;;;;1.60;1.60;;;;;19.77;73.71;98714.97;4978095;28;8852;-59
2023/08/06 10:32:08;;;;;;;;;2.20;2.20;;;;;19.75;73.49;98706.25;4978516;28;8836;-58
2023/08/06 10:34:36;;;;;;;;;1.60;1.60;;;;;19.79;73.20;98712.91;4978425;28;8824;-58
2023/08/06 10:37:04;;;;;;;;;1.60;1.60;;;;;19.88;73.24;98707.06;4978703;28;8856;-58
2023/08/06 10:39:32;;;;;;;;;2.20;2.20;;;;;20.07;72.92;98708.94;4977649;28;8987;-59
2023/08/06 10:42:00;;;;;;;;;2.00;2.00;;;;;20.45;72.59;98696.31;4978186;28;8824;-59
2023/08/06 10:44:28;;;;;;;;;1.00;1.00;;;;;21.04;70.92;98692.25;4978865;28;8848;-59
2023/08/06 10:46:59;;;;;;;;;2.40;2.40;;;;;21.75;69.69;98695.44;4978906;28;8820;-58
2023/08/06 10:49:28;;;;;;;;;1.60;1.00;;;;;22.35;68.34;98691.84;4978896;28;8836;-59
2023/08/06 10:51:56;;;;;;;;;1.60;1.00;;;;;22.67;67.34;98693.34;4978311;28;8833;-58
2023/08/06 10:54:24;;;;;;;;;4.60;4.40;;;;;22.69;67.69;98696.69;4978575;28;8840;-59
2023/08/06 10:56:51;;;;;;;;;4.40;3.20;;;;;22.49;68.38;98701.53;4977900;28;8963;-59
2023/08/06 10:59:19;;;;;;;;;5.00;5.00;;;;;22.27;69.16;98700.31;4978167;28;8839;-60
2023/08/06 11:01:47;;;;;;;;;8.80;8.20;;;;;22.13;69.75;98705.06;4978488;28;8821;-59
2023/08/06 11:04:17;;;;;;;;;8.00;8.00;;;;;22.05;69.95;98704.50;4978252;28;8886;-59
2023/08/06 11:06:44;;;;;;;;;9.00;9.00;;;;;22.01;69.99;98706.03;4977929;28;8837;-59
2023/08/06 11:09:12;;;;;;;;;15.40;13.40;;;;;22.13;70.09;98712.34;4977624;28;8856;-59
2023/08/06 11:11:42;;;;;;;;;14.00;13.20;;;;;22.47;69.05;98700.94;4977458;28;8883;-59
2023/08/06 11:14:10;;;;;;;;;15.20;13.80;;;;;22.74;68.15;98703.06;4978401;28;8837;-59
2023/08/06 11:16:38;;;;;;;;;19.40;15.60;;;;;23.79;65.96;98699.56;4977489;28;8840;-59
2023/08/06 11:19:06;;;;;;;;;15.40;14.20;;;;;25.03;63.77;98692.47;4977097;28;8866;-58
2023/08/06 11:21:34;;;;;;;;;16.20;14.60;;;;;25.83;61.31;98695.53;4977224;28;8833;-59
2023/08/06 11:24:02;;;;;;;;;16.80;12.00;;;;;25.96;61.51;98702.56;4977759;28;8979;-60
2023/08/06 11:26:32;;;;;;;;;13.60;12.20;;;;;25.85;61.74;98695.25;4978139;28;8828;-59
2023/08/06 11:29:00;;;;;;;;;12.00;11.80;;;;;25.58;62.49;98695.13;4977450;28;8941;-61
2023/08/06 11:31:28;;;;;;;;;14.00;12.80;;;;;25.37;63.41;98696.91;4978158;28;8863;-58
2023/08/06 11:33:56;;;;;;;;;16.00;16.00;;;;;25.33;63.79;98691.13;4977429;28;8829;-59
2023/08/06 11:36:24;;;;;;;;;16.80;15.00;;;;;26.01;62.23;98697.16;4977343;28;8840;-61
2023/08/06 11:38:52;;;;;;;;;9.20;9.20;;;;;26.28;62.39;98696.19;4977299;28;8917;-60
2023/08/06 11:41:20;;;;;;;;;13.20;11.20;;;;;26.22;61.68;98697.22;4976774;28;8833;-59
2023/08/06 11:43:48;;;;;;;;;11.40;11.00;;;;;25.89;62.37;98704.66;4976928;28;8907;-60